createdAt,value
2018-12-17T04:01:13.071Z,4.39
2018-12-17T04:06:03.747Z,4.39
2018-12-17T04:11:03.828Z,4.39
2018-12-17T04:16:03.096Z,4.39
2018-12-17T04:21:03.609Z,4.39
2018-12-17T04:26:03.797Z,4.39
2018-12-17T04:31:03.083Z,4.39
2018-12-17T04:36:03.512Z,4.39
2018-12-17T04:41:03.102Z,4.39
2018-12-17T04:46:03.405Z,4.39
2018-12-17T04:51:03.817Z,4.39
2018-12-17T04:56:03.041Z,4.39
2018-12-17T05:01:03.329Z,4.39
2018-12-17T05:06:03.783Z,4.39
2018-12-17T05:11:03.392Z,4.39
2018-12-17T05:16:03.681Z,4.39
2018-12-17T05:21:03.597Z,4.39
2018-12-17T05:26:03.017Z,4.39
2018-12-17T05:31:03.286Z,4.39
2018-12-17T05:36:03.783Z,4.39
2018-12-17T05:41:08.710Z,4.39
2018-12-17T05:46:04.970Z,4.39
2018-12-17T05:51:03.041Z,4.39
2018-12-17T05:56:03.282Z,4.39
2018-12-17T06:01:03.587Z,4.39
2018-12-17T06:06:03.040Z,4.39
2018-12-17T06:11:03.639Z,4.39
2018-12-17T06:16:02.960Z,4.39
2018-12-17T06:21:03.429Z,4.39
2018-12-17T06:26:03.658Z,4.39
2018-12-17T06:31:02.972Z,4.39
2018-12-17T06:36:04.030Z,4.39
2018-12-17T06:41:03.049Z,4.39
2018-12-17T06:46:03.328Z,4.39
2018-12-17T06:51:03.758Z,4.39
2018-12-17T06:56:03.049Z,4.39
2018-12-17T07:01:03.240Z,4.39
2018-12-17T07:06:03.720Z,4.39
2018-12-17T07:11:03.328Z,4.39
2018-12-17T07:16:03.612Z,4.39
2018-12-17T07:21:03.546Z,4.39
2018-12-17T07:26:08.732Z,4.39
2018-12-17T07:31:03.613Z,4.39
2018-12-17T07:36:03.103Z,4.39
2018-12-17T07:41:03.645Z,4.39
2018-12-17T07:46:03.579Z,4.39
2018-12-17T07:51:03.417Z,4.39
2018-12-17T07:56:03.604Z,4.39
2018-12-17T15:17:32.275Z,5.79
2018-12-17T15:22:31.776Z,5.79
2018-12-17T15:27:32.070Z,5.89
2018-12-17T15:32:31.485Z,5.79
2018-12-17T15:37:31.417Z,5.79
2018-12-17T15:42:31.700Z,5.79
2018-12-17T15:47:32.367Z,5.79
2018-12-17T15:52:31.455Z,5.79
2018-12-17T15:57:31.654Z,5.79
2018-12-17T16:02:32.170Z,5.79
2018-12-17T16:07:31.708Z,5.79
2018-12-17T16:12:31.956Z,5.79
2018-12-17T16:17:31.675Z,5.79
2018-12-17T16:22:31.760Z,5.79
2018-12-17T16:27:32.031Z,5.79
2018-12-17T16:32:31.474Z,5.79
2018-12-17T16:37:32.095Z,5.79
2018-12-17T16:42:32.349Z,5.79
2018-12-17T16:47:31.820Z,5.79
2018-12-17T16:52:31.999Z,5.79
2018-12-17T16:57:32.266Z,5.79
2018-12-17T17:02:31.755Z,5.89
2018-12-17T17:07:31.382Z,5.79
2018-12-17T17:12:31.609Z,5.79
2018-12-17T17:17:32.159Z,5.79
2018-12-17T17:22:31.363Z,5.89
2018-12-17T17:27:31.623Z,5.79
2018-12-17T17:32:32.327Z,5.79
2018-12-17T17:37:31.713Z,5.79
2018-12-17T17:42:31.962Z,5.79
2018-12-17T17:47:31.443Z,5.79
2018-12-17T17:52:31.639Z,5.69
2018-12-17T17:57:31.934Z,5.69
2018-12-17T18:02:32.363Z,5.59
2018-12-17T18:07:31.970Z,5.49
2018-12-17T18:12:32.240Z,5.49
2018-12-17T18:17:31.730Z,5.39
2018-12-17T18:22:31.994Z,5.29
2018-12-17T18:27:32.461Z,5.29
2018-12-17T18:32:31.682Z,5.19
2018-12-17T18:37:32.357Z,5.09
2018-12-17T18:42:31.561Z,5.09
2018-12-17T18:47:32.019Z,5.09
2018-12-17T18:52:32.263Z,4.99
2018-12-17T18:57:31.538Z,4.99
2018-12-17T19:02:34.008Z,4.99
2018-12-17T19:07:31.579Z,4.89
2018-12-17T19:12:31.882Z,4.99
2018-12-17T19:17:32.350Z,4.89
2018-12-17T19:22:31.590Z,4.99
2018-12-17T19:27:31.872Z,5.19
2018-12-17T19:32:40.567Z,5.29
2018-12-17T19:37:31.911Z,5.29
2018-12-17T19:42:32.162Z,5.29
2018-12-17T19:47:31.676Z,5.29
2018-12-17T19:52:31.978Z,5.29
2018-12-17T19:57:32.135Z,5.29
2018-12-17T20:02:31.623Z,5.19
2018-12-17T20:07:32.166Z,5.29
2018-12-17T20:12:31.469Z,5.29
2018-12-17T20:17:31.963Z,5.29
2018-12-17T20:22:32.194Z,5.29
2018-12-17T20:27:31.511Z,5.39
2018-12-17T20:32:31.961Z,5.39
2018-12-17T20:37:31.531Z,5.39
2018-12-17T20:42:31.867Z,5.39
2018-12-17T20:47:32.303Z,5.39
2018-12-17T20:52:31.504Z,5.39
2018-12-17T20:57:31.771Z,5.39
2018-12-17T21:02:32.236Z,5.49
2018-12-17T21:07:31.840Z,5.49
2018-12-17T21:12:32.166Z,5.49
2018-12-17T21:17:31.973Z,5.49
2018-12-17T21:22:31.846Z,5.49
2018-12-17T21:27:32.120Z,5.49
2018-12-17T21:32:31.590Z,5.49
2018-12-17T21:37:32.213Z,5.59
2018-12-17T21:42:31.478Z,5.59
2018-12-17T21:47:31.887Z,5.49
2018-12-17T21:52:32.108Z,5.59
2018-12-17T21:57:31.404Z,5.59
2018-12-17T22:02:31.812Z,5.49
2018-12-17T22:07:31.423Z,5.49
2018-12-17T22:12:31.691Z,5.59
2018-12-17T22:17:32.236Z,5.59
2018-12-17T22:22:31.436Z,5.59
2018-12-17T22:27:31.732Z,5.59
2018-12-17T22:32:32.158Z,5.49
2018-12-17T22:37:31.791Z,5.49
2018-12-17T22:42:32.049Z,5.49
